»·PEaware :: LOF4640 KSNA-MMML

LOF4640 :: KSNA-MMML

FLIGHT INFORMATION

Flight Status: Arrived
Operator:
Trans States Airlines
More flights by this operator :: More flights under this callsign
Pilot: Henderson P. (1210)
Aircraft: DEHAVILLAND DASH 8 400
(DH8D)
More flights by this aircraft type
Origin: KSNA John Wayne-Orange Co
United States
Destination: MMML Gen Rodolfo Sanchez Taboada
Mexico
More flights between these airports :: More routes between these airports
Route: MUSEL8 OCN V458 IPL DCT MXL
File this flight plan on PilotEdge
Remarks:
Altitude:
(Current/Filed)
17,000ft
Speed:
(Current/Filed)
302kts
Departed: 17-Jul-18 06:56 PM
Arrived: 17-Jul-18 07:33 PM
Distance/Time
Traveled:
146nm/0:37
Distance/Time
To Go:
Arrived

Flight Plot

Page will automatically refresh every two minutes.

Flight plan parsing failed; only flown route is shown


Map Options




Map Legend


Flown Route
Filed Route
Departure Airport
Arrival Airport
Navaid (VOR, NDB)
Fix

Horizontal Profiles

Position Reports

Time Latitude Longitude Heading Altitude Ground
Speed
17-Jul-18 18:37 33.666308 -117.872975 306 63ft 0kts
17-Jul-18 18:38 33.666308 -117.872975 306 63ft 0kts
17-Jul-18 18:39 33.666308 -117.872975 306 63ft 0kts
17-Jul-18 18:40 33.666308 -117.872975 306 63ft 0kts
17-Jul-18 18:41 33.666308 -117.872975 306 63ft 0kts
17-Jul-18 18:42 33.666308 -117.872975 306 63ft 0kts
17-Jul-18 18:43 33.666308 -117.872975 306 63ft 0kts
17-Jul-18 18:44 33.666308 -117.872975 306 63ft 0kts
17-Jul-18 18:45 33.666308 -117.872975 306 63ft 0kts
17-Jul-18 18:46 33.666308 -117.872975 306 63ft 0kts
17-Jul-18 18:47 33.666308 -117.872975 306 63ft 0kts
17-Jul-18 18:48 33.666308 -117.872975 306 63ft 0kts
17-Jul-18 18:49 33.666308 -117.872975 306 63ft 0kts
17-Jul-18 18:50 33.666308 -117.872975 306 63ft 0kts
17-Jul-18 18:51 33.666308 -117.872975 306 63ft 0kts
17-Jul-18 18:52 33.667723 -117.872343 40 63ft 17kts
17-Jul-18 18:53 33.671987 -117.868212 28 63ft 23kts
17-Jul-18 18:54 33.677862 -117.864101 26 63ft 23kts
17-Jul-18 18:55 33.680651 -117.863148 298 63ft 3kts
17-Jul-18 18:56 33.681420 -117.865230 223 63ft 2kts
17-Jul-18 18:57 33.662993 -117.876893 201 1078ft 134kts
17-Jul-18 18:58 33.621602 -117.893889 198 3124ft 194kts
17-Jul-18 18:59 33.569911 -117.907211 184 4549ft 233kts
17-Jul-18 19:00 33.523215 -117.863746 127 5841ft 242kts
17-Jul-18 19:01 33.482766 -117.799866 127 6954ft 246kts
17-Jul-18 19:02 33.448186 -117.745200 126 7726ft 248kts
17-Jul-18 19:03 33.399804 -117.668899 126 8893ft 243kts
17-Jul-18 19:04 33.358951 -117.604499 125 9876ft 253kts
17-Jul-18 19:05 33.324441 -117.550179 125 10685ft 258kts
17-Jul-18 19:06 33.281262 -117.482266 124 11674ft 266kts
17-Jul-18 19:07 33.241735 -117.411201 104 13103ft 259kts
17-Jul-18 19:08 33.228399 -117.315630 95 14826ft 262kts
17-Jul-18 19:09 33.220062 -117.244041 95 16110ft 264kts
17-Jul-18 19:10 33.210129 -117.159722 95 16946ft 278kts
17-Jul-18 19:11 33.198758 -117.064097 95 17023ft 298kts
17-Jul-18 19:12 33.186747 -116.964489 95 17030ft 302kts
17-Jul-18 19:13 33.174611 -116.864306 95 17037ft 307kts
17-Jul-18 19:14 33.162163 -116.762142 96 17037ft 308kts
17-Jul-18 19:15 33.149615 -116.660209 96 17033ft 309kts
17-Jul-18 19:16 33.123203 -116.562466 123 17018ft 316kts
17-Jul-18 19:17 33.066351 -116.480721 127 17008ft 318kts
17-Jul-18 19:18 33.008928 -116.400200 126 16980ft 318kts
17-Jul-18 19:19 32.951438 -116.319258 126 16992ft 317kts
17-Jul-18 19:20 32.894080 -116.238539 126 16988ft 317kts
17-Jul-18 19:21 32.836099 -116.157230 127 16071ft 332kts
17-Jul-18 19:22 32.776997 -116.073948 123 14220ft 318kts
17-Jul-18 19:23 32.760045 -115.978108 91 12550ft 305kts
17-Jul-18 19:24 32.757950 -115.877248 90 10782ft 294kts
17-Jul-18 19:25 32.756095 -115.787410 91 9336ft 278kts
17-Jul-18 19:26 32.753739 -115.695031 92 7727ft 278kts
17-Jul-18 19:27 32.751517 -115.608350 91 6230ft 259kts
17-Jul-18 19:28 32.749006 -115.522569 96 4758ft 268kts
17-Jul-18 19:29 32.719210 -115.446727 119 3145ft 251kts
17-Jul-18 19:30 32.691385 -115.383465 117 2980ft 189kts
17-Jul-18 19:31 32.669618 -115.330541 116 1777ft 164kts
17-Jul-18 19:32 32.651882 -115.288716 119 746ft 132kts
17-Jul-18 19:33 32.636883 -115.255482 119 143ft 102kts
17-Jul-18 19:34 32.631590 -115.246175 207 82ft 8kts
17-Jul-18 19:35 32.629073 -115.246779 124 82ft 7kts
17-Jul-18 19:36 32.628979 -115.246438 13 81ft 0kts
17-Jul-18 19:37 32.628979 -115.246438 13 81ft 0kts
17-Jul-18 19:38 32.628979 -115.246438 13 81ft 0kts
17-Jul-18 19:39 32.628980 -115.246438 13 81ft 0kts

Navigation Log

Ident Type
Flight plan parsing failed, navigation log unavailable